sensor_id;sensor_type;location;lat;lon;timestamp;P1;durP1;ratioP1;P2;durP2;ratioP2
52888;SDS011;41413;52.770;6.892;2022-10-17T00:00:40;10.07;;;6.53;;
52888;SDS011;41413;52.770;6.892;2022-10-17T00:03:07;7.28;;;6.55;;
52888;SDS011;41413;52.770;6.892;2022-10-17T00:05:37;6.78;;;6.10;;
52888;SDS011;41413;52.770;6.892;2022-10-17T00:08:05;8.57;;;6.25;;
52888;SDS011;41413;52.770;6.892;2022-10-17T00:10:32;6.18;;;5.65;;
52888;SDS011;41413;52.770;6.892;2022-10-17T00:12:59;5.53;;;5.03;;
52888;SDS011;41413;52.770;6.892;2022-10-17T00:15:26;6.13;;;5.63;;
52888;SDS011;41413;52.770;6.892;2022-10-17T00:17:53;8.65;;;6.05;;
52888;SDS011;41413;52.770;6.892;2022-10-17T00:20:19;7.22;;;6.55;;
52888;SDS011;41413;52.770;6.892;2022-10-17T00:22:46;9.15;;;6.90;;
52888;SDS011;41413;52.770;6.892;2022-10-17T00:25:13;8.07;;;6.07;;
52888;SDS011;41413;52.770;6.892;2022-10-17T00:27:40;7.63;;;5.72;;
52888;SDS011;41413;52.770;6.892;2022-10-17T00:30:09;8.35;;;7.00;;
52888;SDS011;41413;52.770;6.892;2022-10-17T00:32:38;7.65;;;6.82;;
52888;SDS011;41413;52.770;6.892;2022-10-17T00:35:05;10.80;;;6.57;;
52888;SDS011;41413;52.770;6.892;2022-10-17T00:37:32;10.50;;;6.60;;
52888;SDS011;41413;52.770;6.892;2022-10-17T00:39:59;6.32;;;5.70;;
52888;SDS011;41413;52.770;6.892;2022-10-17T00:42:26;10.13;;;5.45;;
52888;SDS011;41413;52.770;6.892;2022-10-17T00:44:58;5.35;;;4.50;;
52888;SDS011;41413;52.770;6.892;2022-10-17T00:47:57;8.15;;;4.05;;
52888;SDS011;41413;52.770;6.892;2022-10-17T00:50:29;13.43;;;4.45;;
52888;SDS011;41413;52.770;6.892;2022-10-17T00:52:57;4.30;;;3.75;;
52888;SDS011;41413;52.770;6.892;2022-10-17T00:55:28;4.70;;;4.03;;
52888;SDS011;41413;52.770;6.892;2022-10-17T00:57:59;5.38;;;4.30;;
52888;SDS011;41413;52.770;6.892;2022-10-17T01:00:27;5.90;;;4.20;;
52888;SDS011;41413;52.770;6.892;2022-10-17T01:02:54;4.93;;;4.40;;
52888;SDS011;41413;52.770;6.892;2022-10-17T01:05:21;6.15;;;4.65;;
52888;SDS011;41413;52.770;6.892;2022-10-17T01:07:48;5.22;;;4.72;;
52888;SDS011;41413;52.770;6.892;2022-10-17T01:10:17;7.78;;;4.60;;
52888;SDS011;41413;52.770;6.892;2022-10-17T01:12:55;15.32;;;6.03;;
52888;SDS011;41413;52.770;6.892;2022-10-17T01:26:57;6.88;;;5.05;;
52888;SDS011;41413;52.770;6.892;2022-10-17T01:29:28;6.00;;;5.38;;
52888;SDS011;41413;52.770;6.892;2022-10-17T01:32:04;7.18;;;4.60;;
52888;SDS011;41413;52.770;6.892;2022-10-17T01:34:53;10.32;;;5.28;;
52888;SDS011;41413;52.770;6.892;2022-10-17T01:37:26;6.50;;;5.30;;
52888;SDS011;41413;52.770;6.892;2022-10-17T01:42:34;5.63;;;5.13;;
52888;SDS011;41413;52.770;6.892;2022-10-17T01:45:12;8.18;;;5.43;;
52888;SDS011;41413;52.770;6.892;2022-10-17T01:47:45;6.50;;;4.88;;
52888;SDS011;41413;52.770;6.892;2022-10-17T01:50:19;7.43;;;5.30;;
52888;SDS011;41413;52.770;6.892;2022-10-17T01:52:52;6.78;;;5.30;;
52888;SDS011;41413;52.770;6.892;2022-10-17T01:55:26;8.32;;;5.80;;
52888;SDS011;41413;52.770;6.892;2022-10-17T01:57:59;6.88;;;5.35;;
52888;SDS011;41413;52.770;6.892;2022-10-17T02:00:47;6.35;;;5.40;;
52888;SDS011;41413;52.770;6.892;2022-10-17T02:03:16;14.32;;;6.10;;
52888;SDS011;41413;52.770;6.892;2022-10-17T02:05:44;8.52;;;5.80;;
52888;SDS011;41413;52.770;6.892;2022-10-17T02:08:12;8.75;;;5.20;;
52888;SDS011;41413;52.770;6.892;2022-10-17T02:16:38;7.97;;;6.25;;
52888;SDS011;41413;52.770;6.892;2022-10-17T02:19:24;6.65;;;5.90;;
52888;SDS011;41413;52.770;6.892;2022-10-17T02:23:00;10.98;;;5.82;;
52888;SDS011;41413;52.770;6.892;2022-10-17T02:30:59;7.70;;;6.95;;
52888;SDS011;41413;52.770;6.892;2022-10-17T02:33:42;7.38;;;6.57;;
52888;SDS011;41413;52.770;6.892;2022-10-17T02:36:16;7.78;;;6.07;;
52888;SDS011;41413;52.770;6.892;2022-10-17T02:38:47;8.23;;;7.43;;
52888;SDS011;41413;52.770;6.892;2022-10-17T02:41:15;7.28;;;6.68;;
52888;SDS011;41413;52.770;6.892;2022-10-17T02:43:44;10.82;;;6.47;;
52888;SDS011;41413;52.770;6.892;2022-10-17T02:46:14;7.82;;;7.10;;
52888;SDS011;41413;52.770;6.892;2022-10-17T02:48:48;7.50;;;6.88;;
52888;SDS011;41413;52.770;6.892;2022-10-17T02:51:27;8.50;;;7.63;;
52888;SDS011;41413;52.770;6.892;2022-10-17T02:56:27;8.00;;;7.30;;
52888;SDS011;41413;52.770;6.892;2022-10-17T02:58:58;9.57;;;6.90;;
52888;SDS011;41413;52.770;6.892;2022-10-17T03:01:26;8.43;;;6.55;;
52888;SDS011;41413;52.770;6.892;2022-10-17T03:04:04;9.55;;;7.38;;
52888;SDS011;41413;52.770;6.892;2022-10-17T03:06:34;8.82;;;7.53;;
52888;SDS011;41413;52.770;6.892;2022-10-17T03:09:01;8.50;;;7.57;;
52888;SDS011;41413;52.770;6.892;2022-10-17T03:11:28;8.60;;;7.97;;
52888;SDS011;41413;52.770;6.892;2022-10-17T03:13:55;7.35;;;6.75;;
52888;SDS011;41413;52.770;6.892;2022-10-17T03:16:21;10.25;;;8.30;;
52888;SDS011;41413;52.770;6.892;2022-10-17T03:18:48;8.90;;;8.20;;
52888;SDS011;41413;52.770;6.892;2022-10-17T03:21:15;9.73;;;8.75;;
52888;SDS011;41413;52.770;6.892;2022-10-17T03:23:42;9.52;;;8.18;;
52888;SDS011;41413;52.770;6.892;2022-10-17T03:26:09;10.25;;;9.45;;
52888;SDS011;41413;52.770;6.892;2022-10-17T03:28:35;9.13;;;8.00;;
52888;SDS011;41413;52.770;6.892;2022-10-17T03:31:06;9.13;;;8.43;;
52888;SDS011;41413;52.770;6.892;2022-10-17T03:33:34;9.77;;;8.82;;
52888;SDS011;41413;52.770;6.892;2022-10-17T03:36:09;8.73;;;7.93;;
52888;SDS011;41413;52.770;6.892;2022-10-17T03:38:38;10.65;;;9.15;;
52888;SDS011;41413;52.770;6.892;2022-10-17T03:41:05;9.57;;;8.75;;
52888;SDS011;41413;52.770;6.892;2022-10-17T03:43:32;9.15;;;8.45;;
52888;SDS011;41413;52.770;6.892;2022-10-17T03:46:00;10.00;;;7.82;;
52888;SDS011;41413;52.770;6.892;2022-10-17T03:48:28;9.68;;;8.35;;
52888;SDS011;41413;52.770;6.892;2022-10-17T03:50:58;9.48;;;8.65;;
52888;SDS011;41413;52.770;6.892;2022-10-17T03:53:26;9.07;;;8.38;;
52888;SDS011;41413;52.770;6.892;2022-10-17T03:55:54;11.27;;;9.05;;
52888;SDS011;41413;52.770;6.892;2022-10-17T03:58:20;10.15;;;9.27;;
52888;SDS011;41413;52.770;6.892;2022-10-17T04:00:47;10.45;;;9.45;;
52888;SDS011;41413;52.770;6.892;2022-10-17T04:03:14;14.07;;;10.25;;
52888;SDS011;41413;52.770;6.892;2022-10-17T04:05:42;10.07;;;9.18;;
52888;SDS011;41413;52.770;6.892;2022-10-17T04:08:09;13.75;;;9.98;;
52888;SDS011;41413;52.770;6.892;2022-10-17T04:10:35;10.35;;;9.52;;
52888;SDS011;41413;52.770;6.892;2022-10-17T04:13:02;11.02;;;10.05;;
52888;SDS011;41413;52.770;6.892;2022-10-17T04:15:29;11.65;;;10.65;;
52888;SDS011;41413;52.770;6.892;2022-10-17T04:17:56;13.20;;;11.90;;
52888;SDS011;41413;52.770;6.892;2022-10-17T04:20:22;12.35;;;11.23;;
52888;SDS011;41413;52.770;6.892;2022-10-17T04:22:49;14.02;;;12.68;;
52888;SDS011;41413;52.770;6.892;2022-10-17T04:25:16;13.07;;;11.75;;
52888;SDS011;41413;52.770;6.892;2022-10-17T04:27:42;14.30;;;13.10;;
52888;SDS011;41413;52.770;6.892;2022-10-17T04:30:09;17.33;;;13.82;;
52888;SDS011;41413;52.770;6.892;2022-10-17T04:32:36;14.85;;;13.60;;
52888;SDS011;41413;52.770;6.892;2022-10-17T04:35:06;16.08;;;14.68;;
52888;SDS011;41413;52.770;6.892;2022-10-17T04:37:33;16.05;;;14.63;;
52888;SDS011;41413;52.770;6.892;2022-10-17T04:40:00;16.52;;;14.27;;
52888;SDS011;41413;52.770;6.892;2022-10-17T04:42:27;16.55;;;15.15;;
52888;SDS011;41413;52.770;6.892;2022-10-17T04:44:54;17.42;;;15.60;;
52888;SDS011;41413;52.770;6.892;2022-10-17T04:47:21;16.92;;;15.50;;
52888;SDS011;41413;52.770;6.892;2022-10-17T04:49:48;17.23;;;15.73;;
52888;SDS011;41413;52.770;6.892;2022-10-17T04:52:14;17.80;;;16.23;;
52888;SDS011;41413;52.770;6.892;2022-10-17T04:54:41;17.98;;;16.25;;
52888;SDS011;41413;52.770;6.892;2022-10-17T04:57:07;16.95;;;15.30;;
52888;SDS011;41413;52.770;6.892;2022-10-17T04:59:34;19.25;;;17.25;;
52888;SDS011;41413;52.770;6.892;2022-10-17T05:02:01;18.48;;;16.60;;
52888;SDS011;41413;52.770;6.892;2022-10-17T05:04:28;17.95;;;16.30;;
52888;SDS011;41413;52.770;6.892;2022-10-17T05:06:54;18.88;;;17.13;;
52888;SDS011;41413;52.770;6.892;2022-10-17T05:09:21;19.17;;;17.10;;
52888;SDS011;41413;52.770;6.892;2022-10-17T05:11:47;16.75;;;15.20;;
52888;SDS011;41413;52.770;6.892;2022-10-17T05:14:14;18.38;;;16.70;;
52888;SDS011;41413;52.770;6.892;2022-10-17T05:16:41;17.60;;;16.23;;
52888;SDS011;41413;52.770;6.892;2022-10-17T05:19:08;18.45;;;16.17;;
52888;SDS011;41413;52.770;6.892;2022-10-17T05:21:34;18.70;;;16.88;;
52888;SDS011;41413;52.770;6.892;2022-10-17T05:24:05;18.25;;;16.52;;
52888;SDS011;41413;52.770;6.892;2022-10-17T05:26:34;19.92;;;17.23;;
52888;SDS011;41413;52.770;6.892;2022-10-17T05:29:01;17.80;;;16.08;;
52888;SDS011;41413;52.770;6.892;2022-10-17T05:31:28;18.30;;;16.80;;
52888;SDS011;41413;52.770;6.892;2022-10-17T05:33:59;17.60;;;16.10;;
52888;SDS011;41413;52.770;6.892;2022-10-17T05:36:27;17.17;;;15.55;;
52888;SDS011;41413;52.770;6.892;2022-10-17T05:38:54;17.20;;;15.82;;
52888;SDS011;41413;52.770;6.892;2022-10-17T05:41:21;17.65;;;16.13;;
52888;SDS011;41413;52.770;6.892;2022-10-17T05:43:47;17.52;;;16.05;;
52888;SDS011;41413;52.770;6.892;2022-10-17T05:46:15;16.80;;;15.35;;
52888;SDS011;41413;52.770;6.892;2022-10-17T05:48:42;16.75;;;15.23;;
52888;SDS011;41413;52.770;6.892;2022-10-17T05:51:09;15.98;;;14.45;;
52888;SDS011;41413;52.770;6.892;2022-10-17T05:53:37;16.95;;;15.48;;
52888;SDS011;41413;52.770;6.892;2022-10-17T05:56:06;16.77;;;15.23;;
52888;SDS011;41413;52.770;6.892;2022-10-17T05:58:34;17.80;;;16.00;;
52888;SDS011;41413;52.770;6.892;2022-10-17T06:01:16;19.02;;;17.27;;
52888;SDS011;41413;52.770;6.892;2022-10-17T06:03:42;16.60;;;14.93;;
52888;SDS011;41413;52.770;6.892;2022-10-17T06:06:10;15.77;;;14.23;;
52888;SDS011;41413;52.770;6.892;2022-10-17T06:08:38;16.10;;;14.65;;
52888;SDS011;41413;52.770;6.892;2022-10-17T06:11:05;16.02;;;14.48;;
52888;SDS011;41413;52.770;6.892;2022-10-17T06:13:35;16.95;;;15.25;;
52888;SDS011;41413;52.770;6.892;2022-10-17T06:16:02;16.02;;;14.73;;
52888;SDS011;41413;52.770;6.892;2022-10-17T06:18:29;16.83;;;14.75;;
52888;SDS011;41413;52.770;6.892;2022-10-17T06:21:07;16.35;;;14.85;;
52888;SDS011;41413;52.770;6.892;2022-10-17T06:23:35;15.95;;;14.43;;
52888;SDS011;41413;52.770;6.892;2022-10-17T06:26:03;20.08;;;14.55;;
52888;SDS011;41413;52.770;6.892;2022-10-17T06:28:31;15.52;;;14.23;;
52888;SDS011;41413;52.770;6.892;2022-10-17T06:30:57;19.67;;;15.07;;
52888;SDS011;41413;52.770;6.892;2022-10-17T06:33:24;17.65;;;14.00;;
52888;SDS011;41413;52.770;6.892;2022-10-17T06:35:54;16.10;;;14.75;;
52888;SDS011;41413;52.770;6.892;2022-10-17T06:38:22;14.75;;;13.55;;
52888;SDS011;41413;52.770;6.892;2022-10-17T06:40:49;16.00;;;14.25;;
52888;SDS011;41413;52.770;6.892;2022-10-17T06:43:15;13.73;;;11.90;;
52888;SDS011;41413;52.770;6.892;2022-10-17T06:45:42;14.23;;;12.38;;
52888;SDS011;41413;52.770;6.892;2022-10-17T06:48:11;14.15;;;12.73;;
52888;SDS011;41413;52.770;6.892;2022-10-17T06:50:38;14.80;;;13.15;;
52888;SDS011;41413;52.770;6.892;2022-10-17T06:53:05;15.07;;;13.60;;
52888;SDS011;41413;52.770;6.892;2022-10-17T06:55:32;14.20;;;12.93;;
52888;SDS011;41413;52.770;6.892;2022-10-17T06:57:58;14.98;;;13.32;;
52888;SDS011;41413;52.770;6.892;2022-10-17T07:00:25;13.45;;;12.35;;
52888;SDS011;41413;52.770;6.892;2022-10-17T07:02:52;16.90;;;12.63;;
52888;SDS011;41413;52.770;6.892;2022-10-17T07:05:18;26.63;;;13.20;;
52888;SDS011;41413;52.770;6.892;2022-10-17T07:07:45;11.85;;;10.75;;
52888;SDS011;41413;52.770;6.892;2022-10-17T07:10:16;13.43;;;12.20;;
52888;SDS011;41413;52.770;6.892;2022-10-17T07:12:43;12.80;;;11.50;;
52888;SDS011;41413;52.770;6.892;2022-10-17T07:15:11;13.52;;;12.30;;
52888;SDS011;41413;52.770;6.892;2022-10-17T07:17:37;13.93;;;12.13;;
52888;SDS011;41413;52.770;6.892;2022-10-17T07:20:04;14.40;;;11.48;;
52888;SDS011;41413;52.770;6.892;2022-10-17T07:22:31;13.60;;;12.30;;
52888;SDS011;41413;52.770;6.892;2022-10-17T07:24:58;13.15;;;11.52;;
52888;SDS011;41413;52.770;6.892;2022-10-17T07:27:24;11.23;;;10.30;;
52888;SDS011;41413;52.770;6.892;2022-10-17T07:29:51;12.27;;;11.00;;
52888;SDS011;41413;52.770;6.892;2022-10-17T07:32:18;11.07;;;9.98;;
52888;SDS011;41413;52.770;6.892;2022-10-17T07:34:45;14.18;;;11.10;;
52888;SDS011;41413;52.770;6.892;2022-10-17T07:37:12;11.77;;;10.13;;
52888;SDS011;41413;52.770;6.892;2022-10-17T07:39:38;10.85;;;9.73;;
52888;SDS011;41413;52.770;6.892;2022-10-17T07:42:05;10.85;;;9.98;;
52888;SDS011;41413;52.770;6.892;2022-10-17T07:44:32;11.80;;;9.88;;
52888;SDS011;41413;52.770;6.892;2022-10-17T07:47:00;10.02;;;9.10;;
52888;SDS011;41413;52.770;6.892;2022-10-17T07:49:27;11.82;;;8.32;;
52888;SDS011;41413;52.770;6.892;2022-10-17T07:51:54;11.52;;;6.72;;
52888;SDS011;41413;52.770;6.892;2022-10-17T07:54:21;12.05;;;8.63;;
52888;SDS011;41413;52.770;6.892;2022-10-17T07:56:47;8.10;;;7.32;;
52888;SDS011;41413;52.770;6.892;2022-10-17T07:59:18;7.97;;;7.28;;
52888;SDS011;41413;52.770;6.892;2022-10-17T08:01:45;9.60;;;7.35;;
52888;SDS011;41413;52.770;6.892;2022-10-17T08:04:12;10.13;;;7.13;;
52888;SDS011;41413;52.770;6.892;2022-10-17T08:06:38;9.23;;;7.43;;
52888;SDS011;41413;52.770;6.892;2022-10-17T08:09:05;8.50;;;7.63;;
52888;SDS011;41413;52.770;6.892;2022-10-17T08:11:32;8.18;;;7.25;;
52888;SDS011;41413;52.770;6.892;2022-10-17T08:13:58;9.77;;;8.88;;
52888;SDS011;41413;52.770;6.892;2022-10-17T08:16:25;8.93;;;7.97;;
52888;SDS011;41413;52.770;6.892;2022-10-17T08:18:51;12.68;;;8.55;;
52888;SDS011;41413;52.770;6.892;2022-10-17T08:21:18;8.65;;;7.25;;
52888;SDS011;41413;52.770;6.892;2022-10-17T08:23:45;9.50;;;7.47;;
52888;SDS011;41413;52.770;6.892;2022-10-17T08:26:12;12.05;;;6.72;;
52888;SDS011;41413;52.770;6.892;2022-10-17T08:28:41;9.43;;;8.48;;
52888;SDS011;41413;52.770;6.892;2022-10-17T08:31:10;10.50;;;7.10;;
52888;SDS011;41413;52.770;6.892;2022-10-17T08:33:38;9.40;;;8.23;;
52888;SDS011;41413;52.770;6.892;2022-10-17T08:36:06;8.05;;;7.35;;
52888;SDS011;41413;52.770;6.892;2022-10-17T08:38:34;8.63;;;7.30;;
52888;SDS011;41413;52.770;6.892;2022-10-17T08:41:11;7.80;;;6.95;;
52888;SDS011;41413;52.770;6.892;2022-10-17T08:46:38;10.88;;;7.65;;
52888;SDS011;41413;52.770;6.892;2022-10-17T08:49:12;11.82;;;7.82;;
52888;SDS011;41413;52.770;6.892;2022-10-17T08:52:10;8.52;;;7.72;;
52888;SDS011;41413;52.770;6.892;2022-10-17T08:54:51;9.20;;;7.78;;
52888;SDS011;41413;52.770;6.892;2022-10-17T08:57:17;10.52;;;7.55;;
52888;SDS011;41413;52.770;6.892;2022-10-17T08:59:45;7.78;;;6.70;;
52888;SDS011;41413;52.770;6.892;2022-10-17T09:05:33;8.25;;;7.53;;
52888;SDS011;41413;52.770;6.892;2022-10-17T09:10:54;9.07;;;8.27;;
52888;SDS011;41413;52.770;6.892;2022-10-17T09:16:45;7.75;;;7.15;;
52888;SDS011;41413;52.770;6.892;2022-10-17T09:19:18;11.35;;;9.07;;
52888;SDS011;41413;52.770;6.892;2022-10-17T09:22:03;10.70;;;7.68;;
52888;SDS011;41413;52.770;6.892;2022-10-17T09:24:52;11.18;;;8.90;;
52888;SDS011;41413;52.770;6.892;2022-10-17T09:27:25;11.98;;;9.27;;
52888;SDS011;41413;52.770;6.892;2022-10-17T09:33:10;8.07;;;7.35;;
52888;SDS011;41413;52.770;6.892;2022-10-17T09:36:01;9.70;;;8.70;;
52888;SDS011;41413;52.770;6.892;2022-10-17T09:38:37;14.45;;;8.88;;
52888;SDS011;41413;52.770;6.892;2022-10-17T09:41:12;10.07;;;8.02;;
52888;SDS011;41413;52.770;6.892;2022-10-17T09:44:21;11.50;;;9.70;;
52888;SDS011;41413;52.770;6.892;2022-10-17T09:47:05;9.23;;;8.38;;
52888;SDS011;41413;52.770;6.892;2022-10-17T09:49:55;15.15;;;9.50;;
52888;SDS011;41413;52.770;6.892;2022-10-17T09:52:29;20.90;;;8.75;;
52888;SDS011;41413;52.770;6.892;2022-10-17T09:55:03;13.63;;;7.88;;
52888;SDS011;41413;52.770;6.892;2022-10-17T09:57:53;10.20;;;8.43;;
52888;SDS011;41413;52.770;6.892;2022-10-17T10:00:29;9.85;;;8.10;;
52888;SDS011;41413;52.770;6.892;2022-10-17T10:05:40;11.38;;;7.40;;
52888;SDS011;41413;52.770;6.892;2022-10-17T10:08:15;10.27;;;7.95;;
52888;SDS011;41413;52.770;6.892;2022-10-17T10:10:44;18.15;;;8.57;;
52888;SDS011;41413;52.770;6.892;2022-10-17T10:13:15;8.57;;;7.85;;
52888;SDS011;41413;52.770;6.892;2022-10-17T10:15:46;13.27;;;8.40;;
52888;SDS011;41413;52.770;6.892;2022-10-17T10:23:41;11.98;;;9.65;;
52888;SDS011;41413;52.770;6.892;2022-10-17T10:26:32;14.23;;;8.90;;
52888;SDS011;41413;52.770;6.892;2022-10-17T10:29:04;10.48;;;8.75;;
52888;SDS011;41413;52.770;6.892;2022-10-17T10:31:43;10.77;;;9.73;;
52888;SDS011;41413;52.770;6.892;2022-10-17T10:34:18;9.52;;;8.57;;
52888;SDS011;41413;52.770;6.892;2022-10-17T10:37:00;13.38;;;10.25;;
52888;SDS011;41413;52.770;6.892;2022-10-17T10:39:48;10.50;;;9.35;;
52888;SDS011;41413;52.770;6.892;2022-10-17T10:42:36;10.75;;;9.85;;
52888;SDS011;41413;52.770;6.892;2022-10-17T10:45:18;10.40;;;9.50;;
52888;SDS011;41413;52.770;6.892;2022-10-17T10:56:06;15.32;;;10.40;;
52888;SDS011;41413;52.770;6.892;2022-10-17T11:04:26;11.32;;;10.23;;
52888;SDS011;41413;52.770;6.892;2022-10-17T11:07:04;12.13;;;11.07;;
52888;SDS011;41413;52.770;6.892;2022-10-17T11:09:42;11.70;;;10.65;;
52888;SDS011;41413;52.770;6.892;2022-10-17T11:12:18;13.02;;;11.00;;
52888;SDS011;41413;52.770;6.892;2022-10-17T11:15:19;12.68;;;11.38;;
52888;SDS011;41413;52.770;6.892;2022-10-17T11:18:02;13.55;;;12.25;;
52888;SDS011;41413;52.770;6.892;2022-10-17T11:20:47;11.90;;;10.75;;
52888;SDS011;41413;52.770;6.892;2022-10-17T11:23:33;11.38;;;10.32;;
52888;SDS011;41413;52.770;6.892;2022-10-17T11:26:06;13.15;;;11.57;;
52888;SDS011;41413;52.770;6.892;2022-10-17T11:28:38;12.73;;;11.38;;
52888;SDS011;41413;52.770;6.892;2022-10-17T11:31:06;12.10;;;10.93;;
52888;SDS011;41413;52.770;6.892;2022-10-17T11:33:41;11.63;;;10.60;;
52888;SDS011;41413;52.770;6.892;2022-10-17T11:36:15;15.10;;;11.65;;
52888;SDS011;41413;52.770;6.892;2022-10-17T11:41:32;11.60;;;10.40;;
52888;SDS011;41413;52.770;6.892;2022-10-17T11:49:29;11.20;;;10.10;;
52888;SDS011;41413;52.770;6.892;2022-10-17T11:55:19;11.23;;;10.23;;
52888;SDS011;41413;52.770;6.892;2022-10-17T12:08:32;10.02;;;8.60;;
52888;SDS011;41413;52.770;6.892;2022-10-17T12:11:27;9.82;;;8.93;;
52888;SDS011;41413;52.770;6.892;2022-10-17T12:22:57;9.50;;;7.57;;
52888;SDS011;41413;52.770;6.892;2022-10-17T12:25:32;9.00;;;8.27;;
52888;SDS011;41413;52.770;6.892;2022-10-17T12:28:13;8.05;;;7.15;;
52888;SDS011;41413;52.770;6.892;2022-10-17T12:30:52;8.73;;;7.82;;
52888;SDS011;41413;52.770;6.892;2022-10-17T12:33:34;8.02;;;7.30;;
52888;SDS011;41413;52.770;6.892;2022-10-17T12:38:44;8.00;;;7.22;;
52888;SDS011;41413;52.770;6.892;2022-10-17T12:41:15;7.82;;;7.13;;
52888;SDS011;41413;52.770;6.892;2022-10-17T12:44:04;10.48;;;6.80;;
52888;SDS011;41413;52.770;6.892;2022-10-17T12:49:48;7.45;;;6.85;;
52888;SDS011;41413;52.770;6.892;2022-10-17T12:52:51;9.45;;;6.70;;
52888;SDS011;41413;52.770;6.892;2022-10-17T12:55:24;6.45;;;5.80;;
52888;SDS011;41413;52.770;6.892;2022-10-17T12:58:04;7.00;;;6.40;;
52888;SDS011;41413;52.770;6.892;2022-10-17T13:00:48;5.95;;;5.45;;
52888;SDS011;41413;52.770;6.892;2022-10-17T13:03:42;6.30;;;5.80;;
52888;SDS011;41413;52.770;6.892;2022-10-17T13:06:18;7.43;;;6.80;;
52888;SDS011;41413;52.770;6.892;2022-10-17T13:08:49;6.78;;;6.07;;
52888;SDS011;41413;52.770;6.892;2022-10-17T13:11:31;8.40;;;7.22;;
52888;SDS011;41413;52.770;6.892;2022-10-17T13:14:00;8.05;;;5.78;;
52888;SDS011;41413;52.770;6.892;2022-10-17T13:16:39;7.20;;;6.57;;
52888;SDS011;41413;52.770;6.892;2022-10-17T13:19:17;6.90;;;5.63;;
52888;SDS011;41413;52.770;6.892;2022-10-17T13:21:52;6.75;;;6.07;;
52888;SDS011;41413;52.770;6.892;2022-10-17T13:24:35;7.78;;;7.07;;
52888;SDS011;41413;52.770;6.892;2022-10-17T13:27:05;7.30;;;5.95;;
52888;SDS011;41413;52.770;6.892;2022-10-17T13:29:47;6.70;;;6.20;;
52888;SDS011;41413;52.770;6.892;2022-10-17T13:32:14;9.02;;;6.53;;
52888;SDS011;41413;52.770;6.892;2022-10-17T13:34:40;7.95;;;6.95;;
52888;SDS011;41413;52.770;6.892;2022-10-17T13:37:09;8.02;;;6.38;;
52888;SDS011;41413;52.770;6.892;2022-10-17T13:39:39;7.15;;;6.50;;
52888;SDS011;41413;52.770;6.892;2022-10-17T13:42:22;7.47;;;6.82;;
52888;SDS011;41413;52.770;6.892;2022-10-17T13:44:56;7.30;;;6.60;;
52888;SDS011;41413;52.770;6.892;2022-10-17T13:47:27;6.18;;;5.68;;
52888;SDS011;41413;52.770;6.892;2022-10-17T13:49:57;9.38;;;6.88;;
52888;SDS011;41413;52.770;6.892;2022-10-17T13:52:25;6.53;;;5.97;;
52888;SDS011;41413;52.770;6.892;2022-10-17T13:54:59;9.05;;;6.22;;
52888;SDS011;41413;52.770;6.892;2022-10-17T13:57:33;6.60;;;6.10;;
52888;SDS011;41413;52.770;6.892;2022-10-17T14:00:05;6.63;;;5.97;;
52888;SDS011;41413;52.770;6.892;2022-10-17T14:02:39;6.80;;;6.15;;
52888;SDS011;41413;52.770;6.892;2022-10-17T14:10:35;11.10;;;7.70;;
52888;SDS011;41413;52.770;6.892;2022-10-17T14:13:04;9.02;;;8.23;;
52888;SDS011;41413;52.770;6.892;2022-10-17T14:15:33;7.05;;;6.43;;
52888;SDS011;41413;52.770;6.892;2022-10-17T14:18:04;7.95;;;7.18;;
52888;SDS011;41413;52.770;6.892;2022-10-17T14:20:34;8.93;;;8.13;;
52888;SDS011;41413;52.770;6.892;2022-10-17T14:23:29;8.60;;;7.43;;
52888;SDS011;41413;52.770;6.892;2022-10-17T14:29:03;8.05;;;6.80;;
52888;SDS011;41413;52.770;6.892;2022-10-17T14:31:32;6.85;;;6.28;;
52888;SDS011;41413;52.770;6.892;2022-10-17T14:34:02;5.85;;;5.22;;
52888;SDS011;41413;52.770;6.892;2022-10-17T14:36:31;5.90;;;4.53;;
52888;SDS011;41413;52.770;6.892;2022-10-17T14:39:00;5.05;;;3.22;;
52888;SDS011;41413;52.770;6.892;2022-10-17T14:41:30;5.72;;;3.90;;
52888;SDS011;41413;52.770;6.892;2022-10-17T14:44:15;4.80;;;4.07;;
52888;SDS011;41413;52.770;6.892;2022-10-17T14:46:52;4.22;;;3.90;;
52888;SDS011;41413;52.770;6.892;2022-10-17T14:49:24;4.63;;;3.42;;
52888;SDS011;41413;52.770;6.892;2022-10-17T14:52:09;6.15;;;4.07;;
52888;SDS011;41413;52.770;6.892;2022-10-17T14:54:45;6.97;;;3.55;;
52888;SDS011;41413;52.770;6.892;2022-10-17T14:57:16;3.33;;;3.13;;
52888;SDS011;41413;52.770;6.892;2022-10-17T15:00:06;7.95;;;4.50;;
52888;SDS011;41413;52.770;6.892;2022-10-17T15:02:35;4.97;;;3.70;;
52888;SDS011;41413;52.770;6.892;2022-10-17T15:05:01;9.40;;;3.97;;
52888;SDS011;41413;52.770;6.892;2022-10-17T15:07:28;4.18;;;2.75;;
52888;SDS011;41413;52.770;6.892;2022-10-17T15:09:54;5.38;;;2.90;;
52888;SDS011;41413;52.770;6.892;2022-10-17T15:12:22;6.20;;;3.42;;
52888;SDS011;41413;52.770;6.892;2022-10-17T15:14:50;10.90;;;3.70;;
52888;SDS011;41413;52.770;6.892;2022-10-17T15:17:19;3.33;;;3.10;;
52888;SDS011;41413;52.770;6.892;2022-10-17T15:19:48;6.65;;;3.17;;
52888;SDS011;41413;52.770;6.892;2022-10-17T15:22:16;11.27;;;5.22;;
52888;SDS011;41413;52.770;6.892;2022-10-17T15:24:43;11.70;;;5.25;;
52888;SDS011;41413;52.770;6.892;2022-10-17T15:27:23;13.88;;;4.80;;
52888;SDS011;41413;52.770;6.892;2022-10-17T15:29:51;6.97;;;3.28;;
52888;SDS011;41413;52.770;6.892;2022-10-17T15:32:18;5.60;;;2.10;;
52888;SDS011;41413;52.770;6.892;2022-10-17T15:34:44;2.30;;;2.08;;
52888;SDS011;41413;52.770;6.892;2022-10-17T15:37:21;2.40;;;2.28;;
52888;SDS011;41413;52.770;6.892;2022-10-17T15:39:53;2.65;;;2.45;;
52888;SDS011;41413;52.770;6.892;2022-10-17T15:42:27;2.50;;;2.08;;
52888;SDS011;41413;52.770;6.892;2022-10-17T15:44:54;2.25;;;2.00;;
52888;SDS011;41413;52.770;6.892;2022-10-17T15:47:28;3.38;;;1.80;;
52888;SDS011;41413;52.770;6.892;2022-10-17T15:50:00;2.58;;;2.03;;
52888;SDS011;41413;52.770;6.892;2022-10-17T15:52:27;3.55;;;1.95;;
52888;SDS011;41413;52.770;6.892;2022-10-17T15:54:53;2.40;;;2.17;;
52888;SDS011;41413;52.770;6.892;2022-10-17T15:57:26;4.32;;;3.03;;
52888;SDS011;41413;52.770;6.892;2022-10-17T15:59:56;2.83;;;2.60;;
52888;SDS011;41413;52.770;6.892;2022-10-17T16:02:25;4.75;;;2.53;;
52888;SDS011;41413;52.770;6.892;2022-10-17T16:04:53;3.25;;;2.67;;
52888;SDS011;41413;52.770;6.892;2022-10-17T16:07:19;2.30;;;2.10;;
52888;SDS011;41413;52.770;6.892;2022-10-17T16:09:46;2.67;;;2.47;;
52888;SDS011;41413;52.770;6.892;2022-10-17T16:12:14;4.07;;;2.35;;
52888;SDS011;41413;52.770;6.892;2022-10-17T16:14:52;2.25;;;2.05;;
52888;SDS011;41413;52.770;6.892;2022-10-17T16:17:19;2.97;;;2.70;;
52888;SDS011;41413;52.770;6.892;2022-10-17T16:19:46;3.25;;;2.63;;
52888;SDS011;41413;52.770;6.892;2022-10-17T16:22:17;3.15;;;2.95;;
52888;SDS011;41413;52.770;6.892;2022-10-17T16:24:55;5.78;;;2.95;;
52888;SDS011;41413;52.770;6.892;2022-10-17T16:27:24;3.88;;;3.17;;
52888;SDS011;41413;52.770;6.892;2022-10-17T16:29:51;3.97;;;3.65;;
52888;SDS011;41413;52.770;6.892;2022-10-17T16:32:18;4.03;;;3.63;;
52888;SDS011;41413;52.770;6.892;2022-10-17T16:34:44;7.00;;;3.50;;
52888;SDS011;41413;52.770;6.892;2022-10-17T16:37:11;4.55;;;4.15;;
52888;SDS011;41413;52.770;6.892;2022-10-17T16:39:38;4.85;;;3.88;;
52888;SDS011;41413;52.770;6.892;2022-10-17T16:42:04;4.25;;;3.70;;
52888;SDS011;41413;52.770;6.892;2022-10-17T16:44:31;6.13;;;4.35;;
52888;SDS011;41413;52.770;6.892;2022-10-17T16:46:57;4.30;;;4.00;;
52888;SDS011;41413;52.770;6.892;2022-10-17T16:49:24;4.68;;;4.28;;
52888;SDS011;41413;52.770;6.892;2022-10-17T16:51:51;4.30;;;3.97;;
52888;SDS011;41413;52.770;6.892;2022-10-17T16:54:17;4.28;;;3.97;;